Time;durP1;ratioP1;P1;durP2;ratioP2;P2;SDS_P1;SDS_P2;PMS_P1;PMS_P2;Temp;Humidity;BMP_temperature;BMP_pressure;BME280_temperature;BME280_humidity;BME280_pressure;Samples;Min_cycle;Max_cycle;Signal;HPM_P1;HPM_P2
2021/08/10 00:02:15;;;;;;;7.55;4.03;;;;;;;16.37;97.01;99204.43;2123340;84;21032;-85
2021/08/10 00:05:16;;;;;;;6.55;4.22;;;;;;;16.37;97.35;99203.11;2123198;83;21454;-87
2021/08/10 00:08:17;;;;;;;5.83;4.53;;;;;;;16.36;97.55;99196.17;2122682;84;20948;-86
2021/08/10 00:11:17;;;;;;;4.92;4.53;;;;;;;16.28;98.01;99188.98;2098664;84;21055;-85
2021/08/10 00:14:18;;;;;;;4.00;3.60;;;;;;;16.23;98.30;99183.49;2080449;84;21043;-85
2021/08/10 00:17:19;;;;;;;6.35;4.45;;;;;;;16.05;98.70;99186.23;2083284;84;20997;-86
2021/08/10 00:20:20;;;;;;;5.03;4.22;;;;;;;15.96;99.02;99184.81;2093700;84;20969;-84
2021/08/10 00:23:20;;;;;;;7.28;4.75;;;;;;;15.91;99.30;99198.64;2095262;84;21044;-83
2021/08/10 00:26:21;;;;;;;8.20;4.45;;;;;;;15.92;100.00;99187.56;2087297;84;20962;-82
2021/08/10 00:29:22;;;;;;;4.75;4.00;;;;;;;15.96;100.00;99190.61;2096624;84;21076;-84
2021/08/10 00:32:23;;;;;;;5.83;4.45;;;;;;;16.02;100.00;99200.37;2102801;83;21115;-84
2021/08/10 00:35:24;;;;;;;7.50;4.17;;;;;;;16.02;100.00;99188.48;2092724;84;21068;-85
2021/08/10 00:38:25;;;;;;;5.17;4.42;;;;;;;16.06;100.00;99191.01;2175694;78;21613;-87
2021/08/10 00:41:26;;;;;;;6.40;4.05;;;;;;;16.08;100.00;99189.78;2260700;79;20997;-86
2021/08/10 00:44:26;;;;;;;5.40;4.47;;;;;;;16.04;100.00;99189.09;2260883;79;21037;-87
2021/08/10 00:47:27;;;;;;;25.32;6.33;;;;;;;16.05;100.00;99192.03;2260594;79;21005;-85
2021/08/10 00:50:28;;;;;;;7.17;4.60;;;;;;;16.07;100.00;99182.88;2260088;79;20981;-87
2021/08/10 00:53:29;;;;;;;6.47;4.08;;;;;;;16.10;100.00;99185.64;2261195;79;20981;-85
2021/08/10 00:56:30;;;;;;;5.37;3.65;;;;;;;16.14;100.00;99190.30;2260987;79;20993;-86
2021/08/10 00:59:31;;;;;;;7.15;4.37;;;;;;;16.15;100.00;99183.19;2260743;79;21018;-85
2021/08/10 01:02:32;;;;;;;6.10;4.15;;;;;;;16.07;100.00;99179.42;2260387;79;21043;-85
2021/08/10 01:05:32;;;;;;;5.35;4.37;;;;;;;16.08;100.00;99176.58;2260026;79;21060;-86
2021/08/10 01:08:33;;;;;;;6.50;4.00;;;;;;;16.09;100.00;99174.27;2260023;79;21053;-86
2021/08/10 01:11:34;;;;;;;7.67;4.50;;;;;;;16.11;100.00;99185.95;2260095;79;21112;-85
2021/08/10 01:14:35;;;;;;;8.68;4.28;;;;;;;16.17;100.00;99182.47;2260092;79;20993;-86
2021/08/10 01:17:35;;;;;;;7.37;4.28;;;;;;;16.16;100.00;99179.02;2260099;79;21028;-86
2021/08/10 01:20:36;;;;;;;6.90;4.70;;;;;;;16.16;100.00;99188.27;2260727;79;21468;-87
2021/08/10 01:23:37;;;;;;;60.45;41.80;;;;;;;16.16;100.00;99177.70;2260413;79;21018;-86
2021/08/10 01:26:38;;;;;;;22.85;17.90;;;;;;;16.18;100.00;99177.48;2212211;80;21058;-83
2021/08/10 01:29:39;;;;;;;21.25;13.68;;;;;;;16.16;100.00;99180.34;2262510;79;20954;-81
2021/08/10 01:32:39;;;;;;;19.45;16.40;;;;;;;16.17;100.00;99177.19;2213780;80;20969;-86
2021/08/10 01:35:40;;;;;;;12.43;8.23;;;;;;;16.18;100.00;99170.87;2260114;79;21429;-85
2021/08/10 01:38:41;;;;;;;10.50;5.75;;;;;;;16.15;100.00;99168.66;2245533;78;21012;-86
2021/08/10 01:41:42;;;;;;;6.15;4.80;;;;;;;16.18;100.00;99161.64;2216317;80;21088;-85
2021/08/10 01:44:43;;;;;;;7.00;4.65;;;;;;;16.15;100.00;99156.27;2217596;80;20950;-88
2021/08/10 01:47:43;;;;;;;10.10;4.05;;;;;;;16.17;100.00;99160.02;2216758;79;21053;-86
2021/08/10 01:50:44;;;;;;;14.30;4.75;;;;;;;16.16;100.00;99163.16;2217153;80;21568;-86
2021/08/10 01:53:45;;;;;;;7.05;4.30;;;;;;;16.06;100.00;99157.48;2216773;79;21261;-87
2021/08/10 01:56:46;;;;;;;5.67;3.92;;;;;;;16.05;100.00;99153.22;2217509;80;21536;-87
2021/08/10 01:59:47;;;;;;;9.63;4.58;;;;;;;16.01;100.00;99149.38;2217919;79;21812;-86
2021/08/10 02:02:47;;;;;;;5.00;4.22;;;;;;;15.96;100.00;99149.16;2217177;80;21077;-87
2021/08/10 02:05:48;;;;;;;6.60;3.90;;;;;;;15.92;100.00;99154.05;2217428;79;21030;-86
2021/08/10 02:08:50;;;;;;;5.28;3.67;;;;;;;15.91;100.00;99159.54;2216158;80;21032;-87
2021/08/10 02:11:50;;;;;;;8.70;3.77;;;;;;;15.90;100.00;99167.12;2216616;80;21461;-88
2021/08/10 02:14:51;;;;;;;5.78;4.37;;;;;;;15.88;100.00;99166.52;2217165;80;21488;-89
2021/08/10 02:17:52;;;;;;;7.65;4.35;;;;;;;15.89;100.00;99157.08;2216716;80;20965;-88
2021/08/10 02:20:53;;;;;;;9.05;4.30;;;;;;;15.98;100.00;99165.61;2217031;80;20995;-88
2021/08/10 02:23:54;;;;;;;5.92;4.12;;;;;;;16.06;100.00;99161.95;2216571;80;20957;-89
2021/08/10 02:26:55;;;;;;;5.37;4.12;;;;;;;16.15;100.00;99159.41;2217086;80;21045;-87
2021/08/10 02:29:56;;;;;;;15.13;5.62;;;;;;;16.20;100.00;99145.09;2216719;79;20961;-87
2021/08/10 02:32:56;;;;;;;4.67;3.98;;;;;;;16.21;100.00;99153.32;2217169;80;21050;-87
2021/08/10 02:35:58;;;;;;;9.90;5.03;;;;;;;16.24;100.00;99154.73;2217207;80;21511;-86
2021/08/10 02:38:59;;;;;;;8.78;4.12;;;;;;;16.23;100.00;99150.47;2216370;79;21070;-86
2021/08/10 02:41:59;;;;;;;9.63;4.60;;;;;;;16.23;100.00;99159.20;2216152;80;20961;-87
2021/08/10 02:45:01;;;;;;;5.22;4.00;;;;;;;16.22;100.00;99149.66;2215848;80;21022;-88
2021/08/10 02:48:02;;;;;;;4.80;4.40;;;;;;;16.19;100.00;99141.64;2217337;79;21012;-86
2021/08/10 02:51:02;;;;;;;5.22;4.00;;;;;;;16.15;100.00;99149.66;2216144;80;20966;-87
2021/08/10 02:54:03;;;;;;;9.33;4.22;;;;;;;16.07;100.00;99149.05;2216705;79;20973;-87
2021/08/10 02:57:04;;;;;;;7.92;4.50;;;;;;;16.00;100.00;99146.91;2217199;80;21042;-88
2021/08/10 03:00:05;;;;;;;7.17;4.70;;;;;;;15.97;100.00;99144.69;2217127;79;20981;-87
2021/08/10 03:03:06;;;;;;;5.58;4.90;;;;;;;16.00;100.00;99150.40;2217018;80;21052;-86
2021/08/10 03:06:07;;;;;;;8.63;4.25;;;;;;;16.04;100.00;99156.07;2217298;80;21275;-88
2021/08/10 03:09:09;;;;;;;6.50;5.85;;;;;;;16.07;100.00;99156.47;2217383;80;20994;-87
2021/08/10 03:12:10;;;;;;;10.40;5.20;;;;;;;16.08;100.00;99156.77;2198660;80;21068;-87
2021/08/10 03:15:10;;;;;;;5.08;4.55;;;;;;;16.06;100.00;99144.79;2217547;80;20933;-88
2021/08/10 03:18:11;;;;;;;7.92;5.12;;;;;;;16.05;100.00;99145.30;2217306;79;20942;-89
2021/08/10 03:21:12;;;;;;;10.03;5.05;;;;;;;16.03;100.00;99144.70;2217324;79;21005;-87
2021/08/10 03:24:13;;;;;;;4.62;4.12;;;;;;;16.06;100.00;99150.88;2217049;80;20915;-88
2021/08/10 03:27:14;;;;;;;8.58;5.25;;;;;;;16.08;100.00;99151.48;2216769;80;21069;-88
2021/08/10 03:30:15;;;;;;;12.15;5.10;;;;;;;16.07;100.00;99160.94;2217081;79;21049;-88
2021/08/10 03:33:15;;;;;;;7.47;5.47;;;;;;;16.09;100.00;99168.14;2217315;80;20985;-87
2021/08/10 03:36:16;;;;;;;18.73;7.12;;;;;;;16.10;100.00;99166.64;2217079;79;21477;-88
2021/08/10 03:39:17;;;;;;;13.05;5.00;;;;;;;16.12;100.00;99168.56;2218400;79;21112;-88
2021/08/10 03:42:18;;;;;;;9.83;5.10;;;;;;;16.03;100.00;99176.39;2221375;80;21033;-87
2021/08/10 03:45:19;;;;;;;10.00;5.55;;;;;;;15.97;100.00;99161.34;2221363;80;20949;-88
2021/08/10 03:48:20;;;;;;;7.95;5.35;;;;;;;15.91;100.00;99149.78;2221183;80;20997;-89
2021/08/10 03:51:21;;;;;;;10.23;8.33;;;;;;;15.90;100.00;99153.92;2221265;80;21386;-90
2021/08/10 03:54:22;;;;;;;32.08;19.67;;;;;;;15.91;100.00;99151.62;2221452;80;20969;-90
2021/08/10 03:57:23;;;;;;;827.82;533.12;;;;;;;15.92;100.00;99141.36;2221473;80;20957;-90
2021/08/10 04:00:23;;;;;;;462.68;272.75;;;;;;;15.93;100.00;99143.78;2221343;80;21032;-89
2021/08/10 04:03:24;;;;;;;66.70;37.28;;;;;;;15.94;100.00;99143.28;2221466;80;21033;-89
2021/08/10 04:06:25;;;;;;;15.68;9.73;;;;;;;15.92;100.00;99147.45;2221423;80;20992;-88
2021/08/10 04:09:26;;;;;;;9.35;6.15;;;;;;;15.92;100.00;99151.41;2221450;80;21068;-88
2021/08/10 04:12:27;;;;;;;9.15;7.00;;;;;;;15.97;100.00;99145.50;2221411;80;21431;-88
2021/08/10 04:15:27;;;;;;;7.92;5.25;;;;;;;16.04;100.00;99136.27;2221731;80;21068;-88
2021/08/10 04:18:29;;;;;;;6.65;4.78;;;;;;;16.09;100.00;99141.25;2221357;80;20997;-89
2021/08/10 04:21:30;;;;;;;12.37;5.75;;;;;;;16.05;100.00;99133.92;2221680;80;21006;-86
2021/08/10 04:24:30;;;;;;;7.42;4.92;;;;;;;16.12;100.00;99133.42;2221633;80;20990;-89
2021/08/10 04:27:31;;;;;;;10.10;5.97;;;;;;;16.17;100.00;99133.09;2221393;80;21060;-89
2021/08/10 04:30:32;;;;;;;8.65;5.97;;;;;;;16.24;100.00;99141.52;2221594;80;21064;-88
2021/08/10 04:33:33;;;;;;;7.35;5.55;;;;;;;16.23;100.00;99132.78;2221438;80;21020;-89
2021/08/10 04:36:34;;;;;;;8.30;5.42;;;;;;;16.26;100.00;99128.41;2221550;80;20961;-88
2021/08/10 04:39:34;;;;;;;7.03;5.78;;;;;;;16.30;100.00;99133.59;2234776;78;21492;-89
2021/08/10 04:42:35;;;;;;;9.23;5.47;;;;;;;16.36;100.00;99127.98;2260008;79;20985;-87
2021/08/10 04:45:36;;;;;;;7.12;6.40;;;;;;;16.42;100.00;99141.19;2260035;79;21048;-86
2021/08/10 04:48:37;;;;;;;11.43;6.03;;;;;;;16.43;100.00;99136.70;2259905;79;21516;-87
2021/08/10 04:51:38;;;;;;;7.60;6.50;;;;;;;16.47;100.00;99140.06;2259988;79;21020;-87
2021/08/10 04:54:39;;;;;;;8.98;6.20;;;;;;;16.57;100.00;99149.39;2259974;79;20980;-88
2021/08/10 04:57:39;;;;;;;9.63;6.60;;;;;;;16.68;100.00;99151.39;2259919;79;21032;-87
2021/08/10 05:00:40;;;;;;;9.28;6.50;;;;;;;16.88;100.00;99150.84;2259969;79;20990;-87
2021/08/10 05:03:44;;;;;;;6.50;5.87;;;;;;;17.21;100.00;99151.22;2236866;79;20986;-90
2021/08/10 05:06:44;;;;;;;7.55;5.67;;;;;;;17.48;100.00;99146.58;2260035;79;21021;-88
2021/08/10 05:09:45;;;;;;;9.43;6.65;;;;;;;17.91;100.00;99140.88;2260031;79;20993;-89
2021/08/10 05:12:46;;;;;;;8.53;6.17;;;;;;;18.58;100.00;99141.08;2259869;79;20988;-88
2021/08/10 05:15:47;;;;;;;9.95;6.22;;;;;;;19.06;100.00;99138.19;2260007;79;20965;-89
2021/08/10 05:18:49;;;;;;;7.92;5.95;;;;;;;19.42;100.00;99135.45;2259904;79;21510;-88
2021/08/10 05:21:50;;;;;;;7.50;6.20;;;;;;;19.83;100.00;99129.31;2259961;79;21563;-88
2021/08/10 05:24:50;;;;;;;6.25;5.30;;;;;;;20.29;100.00;99127.71;2259800;79;20961;-89
2021/08/10 05:27:51;;;;;;;6.58;4.75;;;;;;;20.77;100.00;99129.30;2259904;79;21285;-89
2021/08/10 05:30:53;;;;;;;7.17;4.60;;;;;;;21.23;100.00;99136.32;2259393;79;21065;-89
2021/08/10 05:33:53;;;;;;;5.65;4.37;;;;;;;21.50;100.00;99139.75;2260142;79;21534;-88
2021/08/10 05:36:54;;;;;;;4.92;4.30;;;;;;;21.77;99.10;99150.08;2259520;79;20981;-88
2021/08/10 05:39:55;;;;;;;6.20;4.45;;;;;;;22.05;98.13;99150.52;2259699;78;21092;-88
2021/08/10 05:42:56;;;;;;;4.50;4.08;;;;;;;22.27;95.20;99153.27;2260404;79;21035;-89
2021/08/10 05:45:57;;;;;;;5.90;3.90;;;;;;;22.50;93.31;99151.47;2259908;79;20968;-89
2021/08/10 05:48:59;;;;;;;3.95;3.65;;;;;;;22.70;90.66;99153.06;2260813;79;21520;-89
2021/08/10 05:51:59;;;;;;;4.37;4.00;;;;;;;22.82;90.47;99149.73;2259739;79;21317;-90
2021/08/10 05:55:00;;;;;;;4.40;4.08;;;;;;;23.10;88.82;99150.09;2259927;79;21492;-89
2021/08/10 05:58:01;;;;;;;3.90;3.52;;;;;;;23.23;86.49;99144.89;2259882;79;20977;-85
2021/08/10 06:01:04;;;;;;;5.75;4.12;;;;;;;23.40;84.38;99138.90;2236582;79;21013;-87
2021/08/10 06:04:06;;;;;;;4.67;4.25;;;;;;;23.46;84.35;99143.24;2260132;79;21045;-87
2021/08/10 06:07:07;;;;;;;6.58;3.65;;;;;;;23.60;83.51;99148.22;2260072;79;21061;-91
2021/08/10 06:10:08;;;;;;;4.87;3.70;;;;;;;23.74;83.17;99143.52;2260023;79;21554;-91
2021/08/10 06:13:09;;;;;;;4.33;3.90;;;;;;;23.91;81.74;99146.06;2260150;79;20990;-91
2021/08/10 06:16:09;;;;;;;4.15;3.85;;;;;;;23.94;81.00;99142.87;2260000;79;21024;-91
2021/08/10 06:19:10;;;;;;;7.30;6.53;;;;;;;24.08;80.23;99144.59;2259959;79;20915;-91
2021/08/10 06:22:11;;;;;;;3.55;3.25;;;;;;;24.12;79.54;99145.67;2259929;79;20949;-93
2021/08/10 06:25:12;;;;;;;4.80;4.20;;;;;;;24.09;78.40;99142.98;2260025;79;20988;-91
2021/08/10 06:28:13;;;;;;;8.85;4.83;;;;;;;24.15;78.07;99143.04;2260098;79;20986;-92
2021/08/10 06:31:14;;;;;;;10.85;8.95;;;;;;;24.26;77.43;99140.70;2260223;78;21495;-87
2021/08/10 06:34:14;;;;;;;7.42;5.30;;;;;;;24.30;77.22;99137.77;2260281;79;20938;-92
2021/08/10 06:37:15;;;;;;;7.17;4.22;;;;;;;24.34;76.46;99138.38;2260027;79;21583;-90
2021/08/10 06:40:16;;;;;;;6.90;3.77;;;;;;;24.36;74.95;99137.58;2259610;78;21547;-87
2021/08/10 06:43:17;;;;;;;4.42;3.55;;;;;;;24.38;75.27;99139.98;2260003;79;20989;-90
2021/08/10 06:46:18;;;;;;;11.12;8.40;;;;;;;24.37;74.16;99137.84;2259873;79;21031;-88
2021/08/10 06:49:18;;;;;;;8.83;5.85;;;;;;;24.39;73.72;99134.38;2260124;79;20997;-90
2021/08/10 06:52:19;;;;;;;12.60;6.05;;;;;;;24.39;73.36;99130.89;2260369;79;21524;-93
2021/08/10 06:55:20;;;;;;;9.58;6.37;;;;;;;24.40;72.38;99129.28;2260768;79;20984;-90
2021/08/10 06:58:21;;;;;;;10.68;8.53;;;;;;;24.41;71.84;99128.75;2261200;79;21431;-93
2021/08/10 07:01:22;;;;;;;8.58;5.75;;;;;;;24.39;71.73;99134.91;2261709;79;20994;-91
2021/08/10 07:04:22;;;;;;;14.47;8.95;;;;;;;24.38;71.53;99135.97;2262427;79;20949;-90
2021/08/10 07:07:23;;;;;;;21.80;9.20;;;;;;;24.38;71.27;99146.14;2262166;79;21001;-90
2021/08/10 07:10:24;;;;;;;12.58;6.60;;;;;;;24.42;71.45;99142.44;2261439;79;21044;-92
2021/08/10 07:13:25;;;;;;;11.65;7.05;;;;;;;24.45;70.13;99139.23;2260460;79;21014;-94
2021/08/10 07:16:26;;;;;;;5.28;4.40;;;;;;;24.43;68.82;99140.03;2260439;79;20977;-87
2021/08/10 07:19:27;;;;;;;7.70;4.37;;;;;;;24.46;68.35;99130.66;2260082;79;21001;-89
2021/08/10 07:22:28;;;;;;;22.82;8.83;;;;;;;24.48;68.38;99140.04;2260095;79;21060;-90
2021/08/10 07:25:28;;;;;;;14.50;6.90;;;;;;;24.53;68.05;99141.42;2260292;79;20930;-89
2021/08/10 07:28:29;;;;;;;11.75;6.35;;;;;;;24.56;67.63;99142.76;2260660;79;21028;-86
2021/08/10 07:31:30;;;;;;;10.70;5.95;;;;;;;24.61;67.10;99137.44;2262504;79;20993;-86
2021/08/10 07:34:31;;;;;;;3.47;3.10;;;;;;;24.67;66.42;99131.83;2262284;79;21021;-86
2021/08/10 07:37:32;;;;;;;11.43;5.22;;;;;;;24.74;64.23;99133.47;2260515;79;21053;-88
2021/08/10 07:40:33;;;;;;;21.27;9.08;;;;;;;24.70;64.57;99140.43;2260446;78;20990;-88
2021/08/10 07:43:34;;;;;;;9.75;4.08;;;;;;;24.74;64.67;99139.63;2264872;79;21009;-85
2021/08/10 07:46:34;;;;;;;12.58;6.00;;;;;;;24.77;63.95;99133.74;2264412;79;20969;-87
2021/08/10 07:49:35;;;;;;;3.58;2.40;;;;;;;24.78;64.27;99132.70;2262693;79;21377;-88
2021/08/10 07:52:36;;;;;;;23.00;9.50;;;;;;;24.82;63.39;99133.77;2260530;79;21017;-92
2021/08/10 07:55:37;;;;;;;27.35;11.22;;;;;;;24.85;63.56;99141.27;2235413;79;21060;-88
2021/08/10 07:58:38;;;;;;;28.87;12.13;;;;;;;24.88;63.18;99135.41;2211917;80;21081;-87
2021/08/10 08:01:39;;;;;;;3.75;2.70;;;;;;;24.92;63.40;99137.83;2260073;79;21005;-89
2021/08/10 08:04:39;;;;;;;22.15;8.33;;;;;;;24.95;62.66;99129.25;2260000;79;20965;-85
2021/08/10 08:07:40;;;;;;;12.75;6.03;;;;;;;24.99;62.87;99135.44;2259892;79;21504;-87
2021/08/10 08:10:41;;;;;;;12.33;5.97;;;;;;;25.03;62.75;99133.87;2259649;79;21016;-87
2021/08/10 08:13:42;;;;;;;10.38;5.17;;;;;;;25.06;61.87;99128.80;2259949;79;21060;-88
2021/08/10 08:16:43;;;;;;;4.30;2.72;;;;;;;25.09;61.85;99124.25;2260159;79;21464;-89
2021/08/10 08:19:44;;;;;;;4.03;2.40;;;;;;;25.12;61.81;99122.38;2259468;79;21013;-87
2021/08/10 08:22:45;;;;;;;10.80;5.67;;;;;;;25.15;60.60;99129.90;2260010;79;20993;-87
2021/08/10 08:25:46;;;;;;;20.40;9.25;;;;;;;25.13;61.07;99125.31;2259843;79;21491;-90
2021/08/10 08:28:47;;;;;;;13.22;7.05;;;;;;;25.14;61.15;99122.91;2260043;79;21131;-87
2021/08/10 08:31:48;;;;;;;22.55;9.30;;;;;;;25.20;60.81;99121.05;2259813;79;21610;-88
2021/08/10 08:34:49;;;;;;;3.75;2.40;;;;;;;25.24;60.92;99116.80;2259883;79;20942;-89
2021/08/10 08:37:50;;;;;;;22.73;12.45;;;;;;;25.30;60.90;99121.07;2259672;79;20989;-89
2021/08/10 08:40:51;;;;;;;25.75;13.98;;;;;;;25.36;61.78;99119.21;2211452;80;21033;-90
2021/08/10 08:43:51;;;;;;;4.42;3.80;;;;;;;25.42;61.62;99106.90;2259842;79;20965;-87
2021/08/10 08:46:52;;;;;;;13.98;9.90;;;;;;;25.43;61.40;99109.05;2259723;79;20969;-87
2021/08/10 08:49:53;;;;;;;3.10;2.80;;;;;;;25.49;61.63;99110.09;2260020;79;21001;-88
2021/08/10 08:52:54;;;;;;;4.50;2.80;;;;;;;25.58;60.56;99110.91;2259877;79;21492;-88
2021/08/10 08:55:55;;;;;;;3.00;2.80;;;;;;;25.48;60.93;99096.97;2259759;79;21456;-89
2021/08/10 08:58:56;;;;;;;17.25;8.50;;;;;;;25.54;60.76;99105.29;2259896;79;21436;-88
2021/08/10 09:01:57;;;;;;;6.70;3.75;;;;;;;25.63;61.38;99106.36;2259573;79;21556;-88
2021/08/10 09:04:58;;;;;;;9.68;6.28;;;;;;;25.69;61.13;99103.13;2260049;79;20989;-89
2021/08/10 09:07:59;;;;;;;2.85;2.30;;;;;;;25.75;60.99;99098.88;2259708;79;20959;-88
2021/08/10 09:11:00;;;;;;;5.37;2.92;;;;;;;25.73;60.75;99099.69;2259710;79;21075;-88
2021/08/10 09:14:01;;;;;;;8.05;6.00;;;;;;;25.74;60.53;99097.27;2259909;79;22021;-88
2021/08/10 09:17:02;;;;;;;5.58;3.77;;;;;;;25.86;60.36;99101.55;2259824;79;21021;-87
2021/08/10 09:20:03;;;;;;;5.12;3.90;;;;;;;25.96;60.00;99093.48;2259739;79;21527;-88
2021/08/10 09:23:04;;;;;;;5.83;4.40;;;;;;;26.00;60.13;99092.69;2259665;79;21010;-88
2021/08/10 09:26:05;;;;;;;3.75;2.33;;;;;;;26.06;60.21;99088.92;2259755;79;21600;-88
2021/08/10 09:29:06;;;;;;;5.15;3.35;;;;;;;26.24;59.70;99074.13;2259849;79;20981;-88
2021/08/10 09:32:07;;;;;;;2.55;2.35;;;;;;;26.44;60.08;99080.53;2259890;79;21472;-90
2021/08/10 09:35:07;;;;;;;2.37;1.98;;;;;;;26.57;59.45;99082.06;2259857;79;21519;-91
2021/08/10 09:38:08;;;;;;;2.50;2.30;;;;;;;26.67;58.52;99073.16;2260273;79;21005;-89
2021/08/10 09:41:09;;;;;;;2.98;2.77;;;;;;;26.64;58.54;99064.33;2266118;78;21347;-92
2021/08/10 09:44:10;;;;;;;5.70;5.20;;;;;;;26.68;58.17;99055.16;2274622;78;21043;-91
2021/08/10 09:47:11;;;;;;;3.30;3.00;;;;;;;26.74;58.80;99050.04;2273918;78;20992;-87
2021/08/10 09:50:12;;;;;;;10.38;8.55;;;;;;;26.91;57.76;99053.17;2273836;78;21479;-90
2021/08/10 09:53:12;;;;;;;4.78;2.75;;;;;;;27.02;57.74;99054.70;2273705;78;21021;-90
2021/08/10 09:56:13;;;;;;;3.75;2.95;;;;;;;27.17;58.15;99049.81;2275655;78;21012;-86
2021/08/10 09:59:17;;;;;;;2.55;2.35;;;;;;;27.28;57.09;99048.64;2275124;78;21048;-94
2021/08/10 10:02:18;;;;;;;2.10;1.82;;;;;;;27.37;56.18;99046.16;2276648;78;21029;-93
2021/08/10 10:05:21;;;;;;;3.22;1.98;;;;;;;27.28;55.43;99041.92;2276625;78;21032;-93
2021/08/10 10:08:21;;;;;;;3.05;2.02;;;;;;;27.17;55.17;99039.86;2276413;78;21029;-94
2021/08/10 10:11:22;;;;;;;3.08;2.75;;;;;;;27.18;56.05;99028.02;2276204;78;21063;-93
2021/08/10 10:14:23;;;;;;;2.05;1.95;;;;;;;27.25;56.22;99027.71;2276462;78;20993;-93
2021/08/10 10:17:24;;;;;;;1.98;1.87;;;;;;;27.28;54.79;99024.99;2276337;78;20989;-93
2021/08/10 10:20:25;;;;;;;2.60;2.00;;;;;;;27.17;53.45;99021.59;2274263;78;21012;-93
2021/08/10 10:23:25;;;;;;;1.77;1.60;;;;;;;27.13;53.62;99025.91;2273968;78;20984;-94
2021/08/10 10:26:26;;;;;;;3.35;3.12;;;;;;;27.11;53.34;99021.36;2275062;78;20996;-94
2021/08/10 10:29:27;;;;;;;2.37;2.02;;;;;;;27.10;54.14;99024.59;2275752;78;21742;-94
2021/08/10 10:32:28;;;;;;;3.20;2.33;;;;;;;27.18;54.82;99021.30;2276189;78;21106;-93
2021/08/10 10:35:29;;;;;;;1.70;1.60;;;;;;;27.23;54.72;99015.61;2276007;78;21024;-94
2021/08/10 10:38:30;;;;;;;1.65;1.55;;;;;;;27.26;53.58;99019.11;2210689;80;20990;-94
2021/08/10 10:41:32;;;;;;;2.45;2.02;;;;;;;27.23;53.57;99016.95;2207123;80;21026;-93
2021/08/10 10:44:33;;;;;;;2.62;2.05;;;;;;;27.17;53.68;99016.22;2204357;81;21073;-94
2021/08/10 10:47:38;;;;;;;2.58;2.10;;;;;;;27.16;53.87;99013.27;2204977;80;21525;-93
2021/08/10 10:50:36;;;;;;;2.47;2.37;;;;;;;27.24;54.24;99011.30;2204073;80;21006;-94
2021/08/10 10:53:37;;;;;;;2.50;2.30;;;;;;;27.30;53.81;99014.21;2203279;80;21494;-93
2021/08/10 10:56:38;;;;;;;2.75;2.55;;;;;;;27.37;53.52;99008.52;2202999;80;21045;-92
2021/08/10 10:59:39;;;;;;;4.05;3.42;;;;;;;27.42;53.74;99013.84;2202676;81;21026;-92
2021/08/10 11:02:39;;;;;;;4.47;3.47;;;;;;;27.51;53.67;99010.80;2202749;81;20979;-93
2021/08/10 11:05:40;;;;;;;2.92;2.72;;;;;;;27.55;53.72;98999.75;2202696;80;21041;-91
2021/08/10 11:08:41;;;;;;;2.60;2.47;;;;;;;27.47;53.62;99001.16;2202331;80;21030;-90
2021/08/10 11:11:42;;;;;;;3.55;2.30;;;;;;;27.39;53.28;99003.66;2202999;80;21028;-90
2021/08/10 11:14:43;;;;;;;2.85;2.20;;;;;;;27.39;53.78;98995.05;2204684;80;20927;-91
2021/08/10 11:17:43;;;;;;;5.65;2.67;;;;;;;27.49;53.83;99000.88;2204488;80;20965;-91
2021/08/10 11:20:44;;;;;;;3.02;1.90;;;;;;;27.63;53.01;98996.45;2202108;81;20928;-90
2021/08/10 11:23:45;;;;;;;2.65;1.82;;;;;;;27.81;53.18;98996.84;2202365;80;20970;-93
2021/08/10 11:26:46;;;;;;;2.98;2.25;;;;;;;28.02;53.30;98989.59;2203870;80;21593;-92
2021/08/10 11:29:47;;;;;;;2.37;2.20;;;;;;;28.21;53.06;98982.10;2204695;80;21337;-92
2021/08/10 11:32:48;;;;;;;2.70;2.00;;;;;;;28.26;52.42;98981.50;2204856;80;21077;-91
2021/08/10 11:35:49;;;;;;;6.83;2.83;;;;;;;28.16;52.09;98983.50;2204930;81;20978;-93
2021/08/10 11:38:53;;;;;;;2.67;1.95;;;;;;;28.17;52.52;98976.50;2204778;81;20998;-92
2021/08/10 11:41:53;;;;;;;4.08;2.25;;;;;;;28.13;52.26;98976.81;2208033;80;21029;-94
2021/08/10 11:44:54;;;;;;;3.80;3.27;;;;;;;28.15;52.33;98972.48;2210049;80;20986;-90
2021/08/10 11:47:55;;;;;;;12.50;9.08;;;;;;;28.15;52.43;98971.13;2210330;80;22029;-91
2021/08/10 11:50:56;;;;;;;7.30;4.10;;;;;;;28.13;52.31;98966.05;2210223;80;21085;-94
2021/08/10 11:53:57;;;;;;;10.25;4.97;;;;;;;28.08;51.79;98959.39;2211517;80;21018;-94
2021/08/10 11:56:57;;;;;;;2.70;2.50;;;;;;;28.04;51.83;98949.73;2209143;80;20990;-95
2021/08/10 11:59:58;;;;;;;3.30;3.08;;;;;;;27.99;50.39;98947.12;2209340;80;21469;-94
2021/08/10 12:02:59;;;;;;;5.17;3.87;;;;;;;27.99;51.65;98944.43;2198238;80;20994;-95
2021/08/10 12:06:00;;;;;;;3.70;3.40;;;;;;;28.00;51.33;98936.61;2199455;80;20974;-93
2021/08/10 12:09:01;;;;;;;3.05;2.80;;;;;;;28.04;51.52;98936.27;2209530;80;21445;-89
2021/08/10 12:12:02;;;;;;;2.92;2.72;;;;;;;28.15;51.55;98932.11;2210182;79;21084;-93
2021/08/10 12:15:02;;;;;;;3.37;3.08;;;;;;;28.13;51.66;98934.29;2209893;80;21446;-91
2021/08/10 12:18:03;;;;;;;2.42;2.20;;;;;;;28.09;51.79;98926.55;2210396;80;21278;-94
2021/08/10 12:21:04;;;;;;;1.98;1.87;;;;;;;28.02;51.59;98913.44;2210156;80;21043;-92
2021/08/10 12:24:05;;;;;;;2.95;2.70;;;;;;;27.96;51.60;98908.66;2208617;80;21101;-95
2021/08/10 12:27:06;;;;;;;2.70;2.50;;;;;;;27.85;51.60;98892.94;2210158;80;21034;-94
2021/08/10 12:30:07;;;;;;;2.00;1.80;;;;;;;27.78;51.33;98892.73;2211360;80;20997;-93
2021/08/10 12:33:08;;;;;;;3.60;2.60;;;;;;;27.65;50.97;98886.69;2209924;80;21046;-92
2021/08/10 12:36:11;;;;;;;3.40;2.42;;;;;;;27.53;51.67;98887.65;2221946;80;20962;-91
2021/08/10 12:39:11;;;;;;;2.05;1.90;;;;;;;27.45;51.91;98879.66;2211423;80;21029;-91
2021/08/10 12:42:12;;;;;;;4.92;4.10;;;;;;;27.39;51.79;98886.72;2199847;80;21082;-94
2021/08/10 12:45:13;;;;;;;3.40;3.10;;;;;;;27.37;52.03;98876.80;2171546;81;20950;-96
2021/08/10 12:48:24;;;;;;;2.42;2.33;;;;;;;27.41;52.59;98879.95;2164473;80;21082;-96
2021/08/10 12:51:25;;;;;;;2.47;2.10;;;;;;;27.57;52.69;98878.45;2157820;81;21058;-96
2021/08/10 12:54:26;;;;;;;2.85;2.58;;;;;;;27.59;51.81;98875.73;2204203;79;20959;-93
2021/08/10 12:57:33;;;;;;;2.22;2.05;;;;;;;27.52;52.02;98875.27;2203634;81;21039;-96
2021/08/10 13:00:42;;;;;;;2.85;2.65;;;;;;;27.49;51.79;98872.61;2067410;80;21161;-94
2021/08/10 13:07:10;;;;;;;2.25;2.10;;;;;;;27.64;51.64;98865.47;1998751;85;21127;-94
2021/08/10 13:13:22;;;;;;;2.55;2.35;;;;;;;27.81;50.79;98852.92;1943330;87;21212;-96
2021/08/10 13:16:33;;;;;;;2.55;2.35;;;;;;;27.92;49.80;98849.00;1954504;90;21133;-94
2021/08/10 13:19:33;;;;;;;5.37;4.97;;;;;;;27.96;49.40;98838.70;1972536;89;21116;-95
2021/08/10 13:41:52;;;;;;;3.23;2.60;;;;;;;28.02;48.45;98803.11;1760458;95;21236;-94
2021/08/10 13:44:59;;;;;;;4.83;4.42;;;;;;;27.93;48.33;98807.00;1659714;101;21158;-96
2021/08/10 13:48:02;;;;;;;6.10;2.80;;;;;;;27.90;48.12;98800.87;1629240;103;21204;-96
2021/08/10 13:54:31;;;;;;;3.15;2.72;;;;;;;27.80;48.62;98780.02;1640248;104;21793;-95
2021/08/10 13:57:43;;;;;;;2.90;2.70;;;;;;;27.67;48.79;98780.20;1643527;108;21185;-95
2021/08/10 14:00:58;;;;;;;4.53;4.22;;;;;;;27.58;49.21;98773.29;1680083;101;21194;-96
2021/08/10 14:10:24;;;;;;;2.87;2.70;;;;;;;27.60;49.58;98768.96;1690266;102;21190;-96
2021/08/10 14:13:33;;;;;;;3.02;2.40;;;;;;;27.60;48.83;98764.92;1708380;99;21196;-96
2021/08/10 14:16:38;;;;;;;3.85;2.77;;;;;;;27.61;49.28;98765.98;1696913;105;21134;-96
2021/08/10 14:22:52;;;;;;;2.27;2.15;;;;;;;27.71;49.24;98765.89;1696653;99;21209;-95
2021/08/10 14:26:03;;;;;;;2.80;2.47;;;;;;;27.81;49.27;98764.95;1700871;99;21298;-95
2021/08/10 14:43:00;;;;;;;;;;;;;;;;;;;;;
2021/08/10 14:45:58;;;;;;;4.08;2.22;;;;;;;28.04;48.42;98760.02;1767902;99;21147;-90
2021/08/10 14:48:59;;;;;;;4.05;2.77;;;;;;;28.19;48.89;98752.26;1784665;99;21234;-91
2021/08/10 14:52:00;;;;;;;3.58;2.60;;;;;;;28.22;49.07;98740.09;1784634;99;21164;-90
2021/08/10 14:55:01;;;;;;;5.17;3.00;;;;;;;28.19;49.03;98733.97;1784652;100;21093;-91
2021/08/10 14:58:02;;;;;;;2.90;2.45;;;;;;;28.15;48.58;98738.33;1803632;98;21171;-95
2021/08/10 15:01:04;;;;;;;2.80;2.22;;;;;;;28.10;48.88;98740.56;1800900;97;21155;-92